San Antonio, Florida
Current Conditions -  °F | °C
As of 5:35 AM on Thursday 23 Oct 2014 (Local Time) from KZPH Reporting Station
NA  
Wind Chill: 55°   Ceiling: NA
Heat Index: 55°   Visibility: NA
Dew Point: 54°   Wind: 6mph
Humidity: 94%   Direction: 10°N
Pressure: 29.98"   Gusts: NA
Location:  28.34°N, 82.27°W
Report Text: KZPH 230935Z AUTO 01005KT 13/12 A2998 RMK AO2 PWINO
Loading
Personal Weather Stations






























Interactive Weather Map
Tropical Storm Tracking
New forecast layout! Learn more

10-Day Weather Forecast

Advertisements
Track Severe Weather on mobile